createdAt,value
2022-12-25T00:01:53.225Z,82.92
2022-12-25T00:04:59.800Z,82.99
2022-12-25T00:08:04.654Z,83.02
2022-12-25T00:11:18.800Z,82.98
2022-12-25T00:14:25.479Z,82.91
2022-12-25T00:17:30.659Z,82.94
2022-12-25T00:20:35.473Z,82.92
2022-12-25T00:23:41.832Z,82.76
2022-12-25T00:26:47.373Z,82.79
2022-12-25T00:29:54.601Z,82.84
2022-12-25T00:33:03.862Z,82.77
2022-12-25T00:36:15.514Z,82.67
2022-12-25T00:39:20.901Z,82.77
2022-12-25T00:42:25.975Z,82.75
2022-12-25T00:45:32.507Z,82.88
2022-12-25T00:48:37.791Z,82.74
2022-12-25T00:51:42.861Z,82.78
2022-12-25T00:54:48.965Z,82.78
2022-12-25T00:57:56.274Z,82.63
2022-12-25T01:01:01.620Z,82.46
2022-12-25T01:04:06.956Z,82.47
2022-12-25T01:07:13.107Z,82.37
2022-12-25T01:10:32.250Z,82.55
2022-12-25T01:13:38.398Z,82.70
2022-12-25T01:16:44.774Z,82.93
2022-12-25T01:19:51.537Z,82.97
2022-12-25T01:22:58.380Z,83.10
2022-12-25T01:26:04.377Z,83.17
2022-12-25T01:29:10.734Z,83.19
2022-12-25T01:32:17.090Z,83.24
2022-12-25T01:35:23.094Z,83.29
2022-12-25T01:38:29.089Z,83.30
2022-12-25T01:41:36.844Z,83.29
2022-12-25T01:45:03.450Z,83.23
2022-12-25T01:48:11.536Z,83.20
2022-12-25T01:51:22.436Z,83.22
2022-12-25T01:54:34.426Z,83.25
2022-12-25T01:57:43.739Z,83.26
2022-12-25T02:00:50.349Z,83.25
2022-12-25T02:03:58.518Z,83.23
2022-12-25T02:07:06.249Z,83.23
2022-12-25T02:10:11.844Z,83.25
2022-12-25T02:13:18.667Z,83.23
2022-12-25T02:16:32.091Z,83.24
2022-12-25T02:20:09.414Z,83.19
2022-12-25T02:24:06.962Z,83.07
2022-12-25T02:27:22.573Z,83.13
2022-12-25T02:30:29.271Z,83.23
2022-12-25T02:34:07.000Z,83.21
2022-12-25T02:37:28.564Z,83.24
2022-12-25T02:40:46.733Z,83.31
2022-12-25T02:44:13.818Z,83.33
2022-12-25T02:47:36.710Z,83.28
2022-12-25T02:50:59.633Z,83.21
2022-12-25T02:54:23.725Z,83.21
2022-12-25T02:57:48.388Z,83.26
2022-12-25T03:01:14.709Z,83.26
2022-12-25T03:04:41.403Z,83.28
2022-12-25T03:07:48.928Z,83.30
2022-12-25T03:11:14.529Z,83.27
2022-12-25T03:14:38.397Z,83.12
2022-12-25T03:17:44.521Z,83.11
2022-12-25T03:21:09.512Z,83.18
2022-12-25T03:24:34.640Z,83.10
2022-12-25T03:27:40.437Z,83.14
2022-12-25T03:31:12.581Z,83.30
2022-12-25T03:34:53.975Z,83.34
2022-12-25T03:38:40.545Z,83.37
2022-12-25T03:42:12.769Z,83.40
2022-12-25T03:45:46.354Z,83.51
2022-12-25T03:49:11.040Z,83.42
2022-12-25T03:52:36.042Z,83.42
2022-12-25T03:55:48.073Z,83.48
2022-12-25T03:59:10.543Z,83.49
2022-12-25T04:02:34.586Z,83.50
2022-12-25T04:05:51.727Z,83.60
2022-12-25T04:09:16.072Z,83.65
2022-12-25T04:12:41.546Z,83.66
2022-12-25T04:16:04.538Z,83.66
2022-12-25T04:19:28.745Z,83.52
2022-12-25T04:22:53.735Z,83.51
2022-12-25T04:26:19.669Z,83.54
2022-12-25T04:29:43.296Z,83.56
2022-12-25T04:33:07.583Z,83.54
2022-12-25T04:36:22.649Z,83.56
2022-12-25T04:39:28.944Z,83.54
2022-12-25T04:42:34.628Z,83.58
2022-12-25T04:45:39.370Z,83.60
2022-12-25T04:48:48.596Z,83.61
2022-12-25T04:51:56.286Z,83.63
2022-12-25T04:55:03.773Z,83.62
2022-12-25T04:58:11.612Z,83.64
2022-12-25T05:01:17.819Z,83.65
2022-12-25T05:04:24.775Z,83.67
2022-12-25T05:07:30.966Z,83.65
2022-12-25T05:10:38.433Z,83.62
2022-12-25T05:13:43.958Z,83.62
2022-12-25T05:16:49.802Z,83.49
2022-12-25T05:19:57.125Z,83.49
2022-12-25T05:23:03.461Z,83.51
2022-12-25T05:26:08.706Z,83.53
2022-12-25T05:29:14.666Z,83.39
2022-12-25T05:32:20.409Z,83.46
2022-12-25T05:35:27.475Z,83.50
2022-12-25T05:38:33.262Z,83.42
2022-12-25T05:41:39.518Z,83.42
2022-12-25T05:44:45.856Z,83.41
2022-12-25T05:47:51.192Z,83.25
2022-12-25T05:50:57.283Z,83.26
2022-12-25T05:54:05.547Z,83.27
2022-12-25T05:57:12.233Z,83.25
2022-12-25T06:00:18.717Z,83.37
2022-12-25T06:03:24.016Z,83.30
2022-12-25T06:06:31.116Z,83.43
2022-12-25T06:09:37.938Z,83.55
2022-12-25T06:12:43.302Z,83.55
2022-12-25T06:15:49.211Z,83.37
2022-12-25T06:19:01.716Z,83.36
2022-12-25T06:22:09.926Z,83.39
2022-12-25T06:25:16.482Z,83.35
2022-12-25T06:28:22.343Z,83.18
2022-12-25T06:31:34.555Z,83.10
2022-12-25T06:34:41.071Z,82.98
2022-12-25T06:37:47.021Z,83.17
2022-12-25T06:40:51.769Z,83.03
2022-12-25T06:43:57.753Z,83.10
2022-12-25T06:47:03.936Z,83.39
2022-12-25T06:50:10.471Z,83.60
2022-12-25T06:53:16.976Z,83.63
2022-12-25T06:56:28.635Z,83.54
2022-12-25T06:59:35.565Z,83.52
2022-12-25T07:02:40.651Z,83.58
2022-12-25T07:05:48.788Z,83.62
2022-12-25T07:08:53.611Z,83.70
2022-12-25T07:12:00.269Z,83.71
2022-12-25T07:15:09.641Z,83.69
2022-12-25T07:18:16.160Z,83.75
2022-12-25T07:21:27.761Z,83.74
2022-12-25T07:24:38.290Z,83.68
2022-12-25T07:27:44.268Z,83.65
2022-12-25T07:30:49.962Z,83.68
2022-12-25T07:33:57.084Z,83.67
2022-12-25T07:37:03.205Z,83.66
2022-12-25T07:40:09.156Z,83.67
2022-12-25T07:43:16.128Z,83.64
2022-12-25T07:46:21.322Z,83.58
2022-12-25T07:49:28.550Z,83.59
2022-12-25T07:52:39.504Z,83.54
2022-12-25T07:55:41.705Z,83.49
2022-12-25T07:58:47.766Z,83.44
2022-12-25T08:01:54.296Z,83.32
2022-12-25T08:05:00.532Z,83.39
2022-12-25T08:08:11.459Z,83.42
2022-12-25T08:11:17.528Z,83.22
2022-12-25T08:14:24.595Z,83.04
2022-12-25T08:17:30.583Z,82.97
2022-12-25T08:20:39.727Z,83.15
2022-12-25T08:23:49.922Z,83.33
2022-12-25T08:26:56.425Z,83.47
2022-12-25T08:30:02.910Z,83.55
2022-12-25T08:33:10.904Z,83.54
2022-12-25T08:36:20.504Z,83.55
2022-12-25T08:39:28.782Z,83.64
2022-12-25T08:42:35.461Z,83.35
2022-12-25T08:45:42.410Z,83.38
2022-12-25T08:48:48.940Z,83.44
2022-12-25T08:51:56.156Z,83.46
2022-12-25T08:55:02.333Z,83.38
2022-12-25T08:58:08.440Z,83.39
2022-12-25T09:01:15.168Z,83.46
2022-12-25T09:04:22.587Z,83.58
2022-12-25T09:07:30.816Z,83.58
2022-12-25T09:10:30.620Z,83.60
2022-12-25T09:13:17.734Z,83.67
2022-12-25T09:16:20.933Z,83.71
2022-12-25T09:19:08.989Z,83.72
2022-12-25T09:22:01.927Z,83.56
2022-12-25T09:24:49.201Z,83.58
2022-12-25T09:27:41.979Z,83.65
2022-12-25T09:30:35.701Z,83.40
2022-12-25T09:33:46.193Z,83.39
2022-12-25T09:36:53.329Z,83.46
2022-12-25T09:39:58.997Z,83.63
2022-12-25T09:43:03.927Z,83.73
2022-12-25T09:46:08.891Z,83.77
2022-12-25T09:49:49.469Z,83.73
2022-12-25T09:53:10.095Z,83.71
2022-12-25T09:56:20.972Z,83.60
2022-12-25T09:59:38.447Z,83.61
2022-12-25T10:03:10.120Z,83.56
2022-12-25T10:06:35.489Z,83.44
2022-12-25T10:09:49.265Z,83.27
2022-12-25T10:13:26.765Z,83.38
2022-12-25T10:16:52.285Z,83.47
2022-12-25T10:20:15.830Z,83.64
2022-12-25T10:23:29.672Z,83.75
2022-12-25T10:26:37.510Z,83.85
2022-12-25T10:29:46.572Z,83.89
2022-12-25T10:32:53.123Z,83.91
2022-12-25T10:35:59.448Z,83.76
2022-12-25T10:39:05.825Z,83.82
2022-12-25T10:42:27.083Z,83.79
2022-12-25T10:45:33.113Z,83.74
2022-12-25T10:48:43.953Z,83.84
2022-12-25T10:51:51.373Z,83.88
2022-12-25T10:54:58.528Z,83.90
2022-12-25T10:58:05.109Z,83.89
2022-12-25T11:01:20.952Z,83.63
2022-12-25T11:04:36.099Z,83.69
2022-12-25T11:07:41.746Z,83.70
2022-12-25T11:10:52.546Z,83.78
2022-12-25T11:14:08.935Z,83.85
2022-12-25T11:17:26.322Z,83.79
2022-12-25T11:20:34.033Z,83.68
2022-12-25T11:23:41.885Z,83.50
2022-12-25T11:27:03.603Z,83.46
2022-12-25T11:30:18.091Z,83.63
2022-12-25T11:33:19.781Z,83.74
2022-12-25T11:36:45.646Z,83.74
2022-12-25T11:39:53.190Z,83.71
2022-12-25T11:43:08.963Z,83.74
2022-12-25T11:46:21.989Z,83.58
2022-12-25T11:49:31.342Z,83.73
2022-12-25T11:52:38.604Z,83.85
2022-12-25T11:56:07.055Z,83.86
2022-12-25T11:59:19.702Z,83.94
2022-12-25T12:02:34.494Z,83.95
2022-12-25T12:06:06.046Z,83.81
2022-12-25T12:09:27.678Z,83.81
2022-12-25T12:12:50.725Z,83.96
2022-12-25T12:16:04.890Z,84.03
2022-12-25T12:19:10.109Z,83.97
2022-12-25T12:22:20.520Z,83.98
2022-12-25T12:25:29.933Z,84.01
2022-12-25T12:28:41.742Z,84.11
2022-12-25T12:31:56.789Z,84.12
2022-12-25T12:35:02.408Z,84.05
2022-12-25T12:38:14.297Z,83.98
2022-12-25T12:41:22.304Z,83.98
2022-12-25T12:44:30.726Z,83.98
2022-12-25T12:47:58.527Z,83.97
2022-12-25T12:51:04.119Z,83.96
2022-12-25T12:54:35.629Z,83.84
2022-12-25T12:57:48.199Z,83.85
2022-12-25T13:00:59.199Z,83.84
2022-12-25T13:04:33.716Z,83.83
2022-12-25T13:07:49.339Z,83.80
2022-12-25T13:11:05.315Z,83.84
2022-12-25T13:14:15.352Z,83.93
2022-12-25T13:17:22.824Z,83.95
2022-12-25T13:20:33.863Z,84.01
2022-12-25T13:23:45.463Z,83.96
2022-12-25T13:26:52.268Z,83.96
2022-12-25T13:29:58.753Z,83.96
2022-12-25T13:33:07.231Z,83.97
2022-12-25T13:36:14.945Z,83.99
2022-12-25T13:39:22.903Z,84.00
2022-12-25T13:42:33.630Z,83.98
2022-12-25T13:45:42.914Z,83.97
2022-12-25T13:48:49.187Z,83.97
2022-12-25T13:51:55.556Z,83.98
2022-12-25T13:55:17.072Z,83.96
2022-12-25T13:58:30.073Z,83.89
2022-12-25T14:01:38.833Z,83.90
2022-12-25T14:04:44.653Z,83.75
2022-12-25T14:07:51.335Z,83.78
2022-12-25T14:10:59.500Z,83.84
2022-12-25T14:14:18.902Z,83.94
2022-12-25T14:17:25.184Z,84.02
2022-12-25T14:20:43.537Z,83.93
2022-12-25T14:24:02.501Z,83.86
2022-12-25T14:27:19.324Z,83.91
2022-12-25T14:30:27.397Z,83.87
2022-12-25T14:33:38.067Z,83.96
2022-12-25T14:36:44.365Z,83.99
2022-12-25T14:39:55.623Z,84.07
2022-12-25T14:43:15.277Z,84.06
2022-12-25T14:46:20.779Z,83.90
2022-12-25T14:49:39.607Z,83.68
2022-12-25T14:52:57.492Z,83.73
2022-12-25T14:56:05.224Z,83.92
2022-12-25T14:59:15.940Z,84.07
2022-12-25T15:02:24.076Z,84.08
2022-12-25T15:05:45.341Z,84.05
2022-12-25T15:08:51.786Z,84.13
2022-12-25T15:12:00.145Z,84.00
2022-12-25T15:15:06.902Z,83.96
2022-12-25T15:18:15.490Z,83.99
2022-12-25T15:21:22.309Z,84.07
2022-12-25T15:24:27.978Z,84.10
2022-12-25T15:27:34.408Z,83.96
2022-12-25T15:30:44.261Z,84.12
2022-12-25T15:33:52.984Z,84.31
2022-12-25T15:37:01.017Z,84.46
2022-12-25T15:40:07.601Z,84.48
2022-12-25T15:43:38.833Z,84.28
2022-12-25T15:46:25.173Z,84.26
2022-12-25T15:49:29.898Z,84.27
2022-12-25T15:52:34.935Z,84.17
2022-12-25T15:55:42.065Z,84.22
2022-12-25T15:58:49.566Z,84.32
2022-12-25T16:01:59.099Z,84.40
2022-12-25T16:05:10.119Z,84.41
2022-12-25T16:08:12.990Z,84.26
2022-12-25T16:11:21.321Z,84.02
2022-12-25T16:14:28.484Z,84.05
2022-12-25T16:17:33.856Z,84.12
2022-12-25T16:20:41.647Z,84.17
2022-12-25T16:23:50.356Z,84.12
2022-12-25T16:26:57.077Z,84.18
2022-12-25T16:30:04.134Z,84.42
2022-12-25T16:33:10.667Z,84.50
2022-12-25T16:36:19.483Z,84.44
2022-12-25T16:39:24.971Z,84.56
2022-12-25T16:42:31.806Z,84.50
2022-12-25T16:45:40.041Z,84.54
2022-12-25T16:48:49.943Z,84.54
2022-12-25T16:51:55.666Z,84.54
2022-12-25T16:55:01.934Z,84.51
2022-12-25T16:58:09.689Z,84.35
2022-12-25T17:01:25.460Z,84.17
2022-12-25T17:04:33.555Z,84.14
2022-12-25T17:07:45.317Z,84.14
2022-12-25T17:10:54.163Z,84.18
2022-12-25T17:14:03.907Z,84.18
2022-12-25T17:17:10.647Z,84.28
2022-12-25T17:20:15.697Z,84.30
2022-12-25T17:23:21.753Z,84.39
2022-12-25T17:26:28.911Z,84.57
2022-12-25T17:29:36.911Z,84.59
2022-12-25T17:32:41.790Z,84.59
2022-12-25T17:35:50.468Z,84.66
2022-12-25T17:38:57.669Z,84.72
2022-12-25T17:42:05.879Z,84.72
2022-12-25T17:45:12.186Z,84.82
2022-12-25T17:48:18.916Z,84.74
2022-12-25T17:51:27.507Z,84.69
2022-12-25T17:54:34.124Z,84.77
2022-12-25T17:57:42.744Z,84.62
2022-12-25T18:00:51.532Z,84.59
2022-12-25T18:03:59.546Z,84.50
2022-12-25T18:07:05.649Z,84.50
2022-12-25T18:10:12.511Z,84.49
2022-12-25T18:13:18.690Z,84.56
2022-12-25T18:16:24.759Z,84.57
2022-12-25T18:19:31.459Z,84.44
2022-12-25T18:22:37.985Z,84.27
2022-12-25T18:25:44.920Z,84.02
2022-12-25T18:28:50.995Z,84.05
2022-12-25T18:31:58.019Z,84.14
2022-12-25T18:35:05.636Z,84.27
2022-12-25T18:38:13.137Z,84.37
2022-12-25T18:41:20.042Z,84.45
2022-12-25T18:44:25.914Z,84.73
2022-12-25T18:47:31.690Z,84.74
2022-12-25T18:50:38.029Z,84.63
2022-12-25T18:53:44.399Z,84.65
2022-12-25T18:56:53.601Z,84.64
2022-12-25T19:00:00.187Z,84.54
2022-12-25T19:03:08.136Z,84.41
2022-12-25T19:06:13.275Z,84.35
2022-12-25T19:09:18.262Z,84.50
2022-12-25T19:12:24.675Z,84.58
2022-12-25T19:15:31.345Z,84.68
2022-12-25T19:18:39.068Z,84.59
2022-12-25T19:21:44.401Z,84.53
2022-12-25T19:24:50.545Z,84.56
2022-12-25T19:27:58.163Z,84.63
2022-12-25T19:31:02.749Z,84.64
2022-12-25T19:34:08.798Z,84.71
2022-12-25T19:37:15.437Z,84.62
2022-12-25T19:40:21.396Z,84.60
2022-12-25T19:43:28.318Z,84.65
2022-12-25T19:46:40.806Z,84.66
2022-12-25T19:49:52.563Z,84.64
2022-12-25T19:52:55.273Z,84.59
2022-12-25T19:56:02.647Z,84.57
2022-12-25T19:59:08.779Z,84.44
2022-12-25T20:02:18.606Z,84.54
2022-12-25T20:05:25.958Z,84.51
2022-12-25T20:08:34.645Z,84.47
2022-12-25T20:11:43.285Z,84.47
2022-12-25T20:14:51.847Z,84.60
2022-12-25T20:17:59.461Z,84.67
2022-12-25T20:21:08.076Z,84.59
2022-12-25T20:24:17.394Z,84.51
2022-12-25T20:27:23.586Z,84.61
2022-12-25T20:30:29.415Z,84.55
2022-12-25T20:33:35.833Z,84.56
2022-12-25T20:36:43.635Z,84.63
2022-12-25T20:39:49.737Z,84.60
2022-12-25T20:42:55.735Z,84.65
2022-12-25T20:46:01.061Z,84.77
2022-12-25T20:49:06.897Z,84.76
2022-12-25T20:52:15.109Z,84.79
2022-12-25T20:55:23.295Z,84.77
2022-12-25T20:58:31.399Z,84.80
2022-12-25T21:01:38.002Z,84.78
2022-12-25T21:04:52.265Z,84.76
2022-12-25T21:07:55.208Z,84.73
2022-12-25T21:11:01.034Z,84.77
2022-12-25T21:14:06.341Z,84.80
2022-12-25T21:17:13.025Z,84.82
2022-12-25T21:20:18.629Z,84.89
2022-12-25T21:23:23.150Z,85.04
2022-12-25T21:26:47.639Z,85.11
2022-12-25T21:29:50.092Z,85.02
2022-12-25T21:33:16.871Z,84.96
2022-12-25T21:36:25.951Z,84.98
2022-12-25T21:39:33.704Z,84.82
2022-12-25T21:42:41.928Z,84.70
2022-12-25T21:45:48.264Z,84.50
2022-12-25T21:48:54.723Z,84.43
2022-12-25T21:52:16.306Z,84.54
2022-12-25T21:55:24.126Z,84.72
2022-12-25T21:58:29.452Z,84.72
2022-12-25T22:01:37.212Z,84.77
2022-12-25T22:04:43.165Z,84.77
2022-12-25T22:07:49.493Z,84.85
2022-12-25T22:10:56.866Z,84.83
2022-12-25T22:14:50.510Z,84.75
2022-12-25T22:17:48.461Z,84.74
2022-12-25T22:20:54.347Z,84.79
2022-12-25T22:24:00.404Z,84.84
2022-12-25T22:27:06.333Z,84.85
2022-12-25T22:30:15.923Z,84.87
2022-12-25T22:33:21.597Z,84.92
2022-12-25T22:36:26.819Z,84.94
2022-12-25T22:39:34.250Z,84.99
2022-12-25T22:42:40.455Z,85.01
2022-12-25T22:45:47.791Z,84.90
2022-12-25T22:48:53.861Z,84.88
2022-12-25T22:52:02.579Z,84.86
2022-12-25T22:55:09.560Z,84.90
2022-12-25T22:58:15.294Z,85.00
2022-12-25T23:01:25.628Z,84.95
2022-12-25T23:04:32.910Z,84.82
2022-12-25T23:07:40.744Z,84.66
2022-12-25T23:10:46.813Z,84.64
2022-12-25T23:14:11.679Z,84.60
2022-12-25T23:17:21.379Z,84.60
2022-12-25T23:20:47.200Z,84.68
2022-12-25T23:24:10.832Z,84.71
2022-12-25T23:27:16.843Z,84.64
2022-12-25T23:30:25.468Z,84.63
2022-12-25T23:33:32.059Z,84.67
2022-12-25T23:36:37.770Z,84.60
2022-12-25T23:39:45.042Z,84.53
2022-12-25T23:42:50.530Z,84.61
2022-12-25T23:45:56.673Z,84.66
2022-12-25T23:49:02.086Z,84.73
2022-12-25T23:52:07.303Z,84.63
2022-12-25T23:55:13.368Z,84.62
2022-12-25T23:58:19.444Z,84.47
